createdAt,value
2024-02-13T00:01:32.517Z,100884.44
2024-02-13T00:03:59.224Z,100892.38
2024-02-13T00:06:25.528Z,100886.06
2024-02-13T00:08:52.089Z,100890.69
2024-02-13T00:11:19.376Z,100894.38
2024-02-13T00:13:48.046Z,100898.66
2024-02-13T00:16:14.809Z,100903.97
2024-02-13T00:18:41.170Z,100907.06
2024-02-13T00:21:09.128Z,100911.66
2024-02-13T00:23:37.253Z,100914.28
2024-02-13T00:26:04.144Z,100909.81
2024-02-13T00:28:30.823Z,100919.91
2024-02-13T00:30:57.333Z,100913.97
2024-02-13T00:33:24.012Z,100914.19
2024-02-13T00:35:52.014Z,100927.94
2024-02-13T00:38:18.449Z,100925.97
2024-02-13T00:40:45.071Z,100936.09
2024-02-13T00:43:18.391Z,100932.88
2024-02-13T00:45:45.073Z,100933.88
2024-02-13T00:48:11.612Z,100939.56
2024-02-13T00:50:39.064Z,100938.81
2024-02-13T00:53:06.415Z,100941.88
2024-02-13T00:55:33.046Z,100953.78
2024-02-13T00:57:59.363Z,100941.13
2024-02-13T01:00:25.859Z,100957.72
2024-02-13T01:02:52.248Z,100953.97
2024-02-13T01:05:18.867Z,100957.81
2024-02-13T01:07:45.258Z,100959.38
2024-02-13T01:10:11.639Z,100972.03
2024-02-13T01:12:40.490Z,100967.50
2024-02-13T01:15:07.148Z,100976.53
2024-02-13T01:17:33.802Z,100978.47
2024-02-13T01:20:00.248Z,100984.63
2024-02-13T01:22:27.541Z,100989.06
2024-02-13T01:24:53.920Z,100987.50
2024-02-13T01:27:20.601Z,100991.03
2024-02-13T01:29:48.619Z,100997.66
2024-02-13T01:32:17.589Z,101000.72
2024-02-13T01:34:44.386Z,101000.28
2024-02-13T01:37:10.731Z,100997.66
2024-02-13T01:39:37.262Z,101006.09
2024-02-13T01:42:03.870Z,101008.19
2024-02-13T01:44:30.189Z,101009.94
2024-02-13T01:46:58.434Z,101013.47
2024-02-13T01:49:25.511Z,101017.00
2024-02-13T01:51:52.703Z,101021.50
2024-02-13T01:54:19.650Z,101022.47
2024-02-13T01:56:48.395Z,101021.63
2024-02-13T01:59:15.487Z,101025.00
2024-02-13T02:01:43.374Z,101019.63
2024-02-13T02:04:10.699Z,101015.78
2024-02-13T02:06:37.230Z,101013.25
2024-02-13T02:09:04.793Z,101023.19
2024-02-13T02:11:32.449Z,101022.28
2024-02-13T02:13:59.950Z,101028.88
2024-02-13T02:16:26.586Z,101026.44
2024-02-13T02:18:54.710Z,101024.03
2024-02-13T02:21:21.338Z,101031.28
2024-02-13T02:23:47.724Z,101037.03
2024-02-13T02:26:15.091Z,101035.72
2024-02-13T02:28:41.872Z,101039.47
2024-02-13T02:31:08.194Z,101040.31
2024-02-13T02:33:34.949Z,101036.03
2024-02-13T02:36:01.760Z,101041.00
2024-02-13T02:38:28.226Z,101049.56
2024-02-13T02:40:54.799Z,101048.00
2024-02-13T02:43:21.507Z,101047.38
2024-02-13T02:45:47.923Z,101055.97
2024-02-13T02:48:16.173Z,101061.56
2024-02-13T02:50:43.518Z,101060.81
2024-02-13T02:53:10.188Z,101064.66
2024-02-13T02:55:36.553Z,101067.41
2024-02-13T02:58:02.847Z,101066.28
2024-02-13T03:00:29.444Z,101069.34
2024-02-13T03:02:56.905Z,101070.94
2024-02-13T03:05:23.712Z,101067.50
2024-02-13T03:07:50.027Z,101069.34
2024-02-13T03:10:16.596Z,101077.09
2024-02-13T03:12:42.909Z,101082.25
2024-02-13T03:15:09.729Z,101078.16
2024-02-13T03:17:38.808Z,101078.84
2024-02-13T03:20:07.944Z,101083.91
2024-02-13T03:22:37.795Z,101090.50
2024-02-13T03:25:05.612Z,101090.91
2024-02-13T03:27:32.274Z,101092.69
2024-02-13T03:29:58.671Z,101090.19
2024-02-13T03:32:26.569Z,101090.81
2024-02-13T03:34:54.138Z,101091.81
2024-02-13T03:37:21.162Z,101092.91
2024-02-13T03:39:48.237Z,101092.44
2024-02-13T03:42:14.546Z,101093.75
2024-02-13T03:44:41.340Z,101088.66
2024-02-13T03:47:07.666Z,101095.00
2024-02-13T03:49:34.152Z,101100.91
2024-02-13T03:52:01.028Z,101095.28
2024-02-13T03:54:27.554Z,101113.84
2024-02-13T03:56:53.983Z,101108.81
2024-02-13T03:59:20.545Z,101109.03
2024-02-13T04:01:47.566Z,101105.09
2024-02-13T04:04:14.630Z,101094.34
2024-02-13T04:06:42.976Z,101110.50
2024-02-13T04:09:09.569Z,101108.44
2024-02-13T04:11:37.078Z,101115.50
2024-02-13T04:14:04.212Z,101117.56
2024-02-13T04:16:32.056Z,101116.38
2024-02-13T04:19:00.010Z,101118.38
2024-02-13T04:21:26.814Z,101128.94
2024-02-13T04:23:53.691Z,101142.69
2024-02-13T04:26:30.509Z,101152.94
2024-02-13T04:29:02.665Z,101147.66
2024-02-13T04:31:29.062Z,101150.19
2024-02-13T04:33:55.511Z,101148.31
2024-02-13T04:36:21.872Z,101148.06
2024-02-13T04:38:48.765Z,101145.53
2024-02-13T04:41:15.750Z,101153.22
2024-02-13T04:43:44.609Z,101144.69
2024-02-13T04:46:11.418Z,101147.19
2024-02-13T04:48:38.539Z,101153.38
2024-02-13T04:51:08.075Z,101150.06
2024-02-13T04:53:34.767Z,101157.13
2024-02-13T04:56:01.126Z,101163.03
2024-02-13T04:58:31.332Z,101158.22
2024-02-13T05:01:07.031Z,101156.69
2024-02-13T05:03:49.243Z,101156.78
2024-02-13T05:06:35.058Z,101161.97
2024-02-13T05:09:01.675Z,101155.16
2024-02-13T05:11:28.050Z,101158.69
2024-02-13T05:13:55.823Z,101158.91
2024-02-13T05:16:25.313Z,101159.69
2024-02-13T05:18:52.738Z,101160.66
2024-02-13T05:21:20.666Z,101154.63
2024-02-13T05:23:50.721Z,101162.84
2024-02-13T05:26:19.019Z,101167.91
2024-02-13T05:28:45.532Z,101160.44
2024-02-13T05:31:12.782Z,101169.69
2024-02-13T05:33:40.332Z,101167.03
2024-02-13T05:36:11.508Z,101173.66
2024-02-13T05:38:41.692Z,101164.03
2024-02-13T05:41:08.183Z,101171.41
2024-02-13T05:43:34.465Z,101183.59
2024-02-13T05:46:00.930Z,101179.59
2024-02-13T05:48:27.561Z,101178.16
2024-02-13T05:50:53.959Z,101171.94
2024-02-13T05:53:21.143Z,101173.28
2024-02-13T05:55:47.474Z,101185.75
2024-02-13T05:58:13.769Z,101178.84
2024-02-13T06:00:41.390Z,101188.53
2024-02-13T06:03:09.930Z,101188.44
2024-02-13T06:05:36.995Z,101184.19
2024-02-13T06:08:03.612Z,101183.44
2024-02-13T06:10:31.589Z,101183.97
2024-02-13T06:12:58.026Z,101186.53
2024-02-13T06:15:24.615Z,101185.56
2024-02-13T06:17:51.170Z,101188.34
2024-02-13T06:20:19.119Z,101186.84
2024-02-13T06:22:45.752Z,101193.00
2024-02-13T06:25:13.517Z,101195.53
2024-02-13T06:27:40.047Z,101194.41
2024-02-13T06:30:08.235Z,101203.94
2024-02-13T06:32:34.949Z,101203.72
2024-02-13T06:35:01.330Z,101204.06
2024-02-13T06:37:27.832Z,101208.00
2024-02-13T06:39:54.367Z,101207.47
2024-02-13T06:42:20.678Z,101212.25
2024-02-13T06:44:47.689Z,101218.06
2024-02-13T06:47:14.305Z,101221.06
2024-02-13T06:49:40.861Z,101217.03
2024-02-13T06:52:07.538Z,101222.34
2024-02-13T06:54:34.080Z,101219.34
2024-02-13T06:57:01.124Z,101221.09
2024-02-13T06:59:31.174Z,101226.38
2024-02-13T07:01:57.587Z,101236.47
2024-02-13T07:04:24.403Z,101233.94
2024-02-13T07:07:02.969Z,101243.78
2024-02-13T07:09:35.526Z,101243.00
2024-02-13T07:12:02.234Z,101244.28
2024-02-13T07:14:30.613Z,101242.66
2024-02-13T07:16:57.273Z,101249.72
2024-02-13T07:19:26.644Z,101248.19
2024-02-13T07:21:53.052Z,101261.22
2024-02-13T07:24:19.651Z,101257.56
2024-02-13T07:26:45.996Z,101254.50
2024-02-13T07:29:12.640Z,101261.22
2024-02-13T07:31:39.359Z,101263.34
2024-02-13T07:34:05.935Z,101259.84
2024-02-13T07:36:32.451Z,101253.66
2024-02-13T07:38:59.190Z,101257.47
2024-02-13T07:41:25.824Z,101265.03
2024-02-13T07:43:52.217Z,101263.75
2024-02-13T07:46:19.421Z,101269.31
2024-02-13T07:48:48.561Z,101272.47
2024-02-13T07:51:16.028Z,101270.56
2024-02-13T07:53:42.605Z,101272.06
2024-02-13T07:56:12.160Z,101269.28
2024-02-13T07:58:39.645Z,101274.81
2024-02-13T08:01:07.183Z,101276.94
2024-02-13T08:03:35.566Z,101273.03
2024-02-13T08:06:04.906Z,101283.88
2024-02-13T08:08:31.865Z,101281.06
2024-02-13T08:10:59.878Z,101284.09
2024-02-13T08:13:26.743Z,101283.81
2024-02-13T08:15:53.910Z,101288.84
2024-02-13T08:18:21.197Z,101284.84
2024-02-13T08:20:48.354Z,101290.69
2024-02-13T08:23:15.692Z,101295.88
2024-02-13T08:25:44.421Z,101294.38
2024-02-13T08:28:12.491Z,101291.75
2024-02-13T08:30:38.835Z,101299.09
2024-02-13T08:33:06.158Z,101308.59
2024-02-13T08:35:32.961Z,101303.50
2024-02-13T08:37:59.446Z,101309.59
2024-02-13T08:40:25.765Z,101301.09
2024-02-13T08:42:54.088Z,101305.28
2024-02-13T08:45:21.958Z,101312.22
2024-02-13T08:47:49.789Z,101316.50
2024-02-13T08:50:16.298Z,101307.47
2024-02-13T08:52:42.731Z,101311.00
2024-02-13T08:55:10.319Z,101320.50
2024-02-13T08:57:36.748Z,101318.56
2024-02-13T09:00:05.064Z,101310.75
2024-02-13T09:02:31.548Z,101309.00
2024-02-13T09:04:59.064Z,101313.72
2024-02-13T09:07:25.903Z,101308.28
2024-02-13T09:09:52.598Z,101309.69
2024-02-13T09:12:20.467Z,101306.72
2024-02-13T09:14:47.278Z,101308.22
2024-02-13T09:17:15.374Z,101315.53
2024-02-13T09:19:44.197Z,101301.00
2024-02-13T09:22:11.101Z,101302.00
2024-02-13T09:24:38.746Z,101309.63
2024-02-13T09:27:05.579Z,101307.16
2024-02-13T09:29:32.012Z,101314.78
2024-02-13T09:31:58.629Z,101326.13
2024-02-13T09:34:25.287Z,101314.16
2024-02-13T09:36:51.631Z,101323.91
2024-02-13T09:39:18.308Z,101319.69
2024-02-13T09:41:44.865Z,101319.31
2024-02-13T09:44:13.870Z,101327.38
2024-02-13T09:46:42.654Z,101326.03
2024-02-13T09:49:11.063Z,101328.78
2024-02-13T09:51:38.617Z,101334.38
2024-02-13T09:54:06.251Z,101345.06
2024-02-13T09:56:32.864Z,101336.78
2024-02-13T09:59:00.064Z,101333.13
2024-02-13T10:01:26.646Z,101331.88
2024-02-13T10:03:53.624Z,101332.47
2024-02-13T10:06:20.277Z,101347.03
2024-02-13T10:08:53.209Z,101349.09
2024-02-13T10:11:29.527Z,101342.63
2024-02-13T10:13:55.836Z,101359.47
2024-02-13T10:16:27.654Z,101352.03
2024-02-13T10:19:04.683Z,101360.63
2024-02-13T10:21:33.320Z,101349.09
2024-02-13T10:24:07.913Z,101354.56
2024-02-13T10:26:35.724Z,101355.53
2024-02-13T10:29:02.301Z,101365.63
2024-02-13T10:31:35.834Z,101353.28
2024-02-13T10:34:05.847Z,101346.16
2024-02-13T10:36:34.068Z,101345.31
2024-02-13T10:39:04.974Z,101360.94
2024-02-13T10:41:35.311Z,101341.41
2024-02-13T10:44:02.714Z,101355.94
2024-02-13T10:46:31.810Z,101359.97
2024-02-13T10:49:08.835Z,101361.41
2024-02-13T10:51:36.827Z,101359.56
2024-02-13T10:54:05.939Z,101354.06
2024-02-13T10:56:36.442Z,101361.78
2024-02-13T10:59:03.744Z,101348.38
2024-02-13T11:01:32.810Z,101348.75
2024-02-13T11:03:59.592Z,101336.25
2024-02-13T11:06:26.389Z,101344.75
2024-02-13T11:08:53.031Z,101337.94
2024-02-13T11:11:22.717Z,101335.06
2024-02-13T11:13:49.936Z,101342.03
2024-02-13T11:16:16.323Z,101357.63
2024-02-13T11:18:48.488Z,101347.59
2024-02-13T11:21:22.661Z,101352.53
2024-02-13T11:24:09.903Z,101364.75
2024-02-13T11:26:37.603Z,101357.25
2024-02-13T11:29:14.223Z,101350.25
2024-02-13T11:31:41.308Z,101344.44
2024-02-13T11:34:10.211Z,101350.66
2024-02-13T11:36:37.217Z,101356.06
2024-02-13T11:39:08.441Z,101361.31
2024-02-13T11:41:35.669Z,101359.53
2024-02-13T11:44:05.350Z,101345.69
2024-02-13T11:46:32.463Z,101344.81
2024-02-13T11:48:59.874Z,101363.69
2024-02-13T11:51:27.395Z,101367.19
2024-02-13T11:53:53.796Z,101371.72
2024-02-13T11:56:20.561Z,101373.75
2024-02-13T11:58:47.646Z,101374.34
2024-02-13T12:01:19.201Z,101374.53
2024-02-13T12:03:45.564Z,101359.31
2024-02-13T12:06:12.696Z,101353.38
2024-02-13T12:08:42.754Z,101362.94
2024-02-13T12:11:09.404Z,101358.06
2024-02-13T12:13:36.327Z,101369.34
2024-02-13T12:16:03.593Z,101362.09
2024-02-13T12:18:34.200Z,101374.53
2024-02-13T12:21:01.040Z,101371.03
2024-02-13T12:23:27.739Z,101381.97
2024-02-13T12:26:01.710Z,101383.72
2024-02-13T12:28:29.415Z,101384.31
2024-02-13T12:30:56.340Z,101381.97
2024-02-13T12:33:24.434Z,101381.34
2024-02-13T12:36:04.139Z,101380.97
2024-02-13T12:38:31.788Z,101378.22
2024-02-13T12:40:59.081Z,101382.88
2024-02-13T12:43:28.226Z,101386.31
2024-02-13T12:45:56.563Z,101390.22
2024-02-13T12:48:23.712Z,101388.03
2024-02-13T12:50:53.841Z,101385.00
2024-02-13T12:53:22.488Z,101387.69
2024-02-13T12:55:50.932Z,101393.03
2024-02-13T12:58:18.224Z,101401.88
2024-02-13T13:00:49.393Z,101396.31
2024-02-13T13:03:16.347Z,101393.22
2024-02-13T13:05:44.082Z,101389.59
2024-02-13T13:08:15.847Z,101402.28
2024-02-13T13:10:44.384Z,101391.81
2024-02-13T13:13:13.633Z,101390.38
2024-02-13T13:15:42.315Z,101392.31
2024-02-13T13:18:20.567Z,101391.03
2024-02-13T13:20:48.893Z,101396.91
2024-02-13T13:23:22.527Z,101401.00
2024-02-13T13:25:55.792Z,101394.47
2024-02-13T13:28:24.231Z,101400.88
2024-02-13T13:30:55.372Z,101400.78
2024-02-13T13:33:24.341Z,101392.59
2024-02-13T13:35:51.098Z,101402.84
2024-02-13T13:38:25.876Z,101403.22
2024-02-13T13:40:53.047Z,101405.34
2024-02-13T13:43:20.244Z,101399.94
2024-02-13T13:45:56.062Z,101405.81
2024-02-13T13:48:23.253Z,101410.66
2024-02-13T13:50:50.350Z,101405.91
2024-02-13T13:53:16.798Z,101405.44
2024-02-13T13:55:44.808Z,101423.56
2024-02-13T13:58:11.769Z,101409.84
2024-02-13T14:00:38.239Z,101412.41
2024-02-13T14:03:07.228Z,101407.47
2024-02-13T14:05:35.395Z,101413.31
2024-02-13T14:08:05.946Z,101408.47
2024-02-13T14:10:35.478Z,101410.22
2024-02-13T14:13:02.347Z,101415.50
2024-02-13T14:15:30.190Z,101412.28
2024-02-13T14:17:59.269Z,101417.03
2024-02-13T14:20:26.423Z,101425.03
2024-02-13T14:22:55.227Z,101427.22
2024-02-13T14:25:27.897Z,101419.19
2024-02-13T14:27:54.777Z,101425.16
2024-02-13T14:30:21.498Z,101421.19
2024-02-13T14:32:48.228Z,101431.13
2024-02-13T14:35:18.163Z,101438.22
2024-02-13T14:37:47.755Z,101438.66
2024-02-13T14:40:15.313Z,101437.44
2024-02-13T14:42:43.566Z,101439.66
2024-02-13T14:45:11.381Z,101438.66
2024-02-13T14:47:41.183Z,101437.34
2024-02-13T14:50:08.811Z,101447.72
2024-02-13T14:52:38.161Z,101442.41
2024-02-13T14:55:05.090Z,101447.28
2024-02-13T14:57:34.540Z,101437.78
2024-02-13T15:00:03.689Z,101449.63
2024-02-13T15:02:34.692Z,101454.34
2024-02-13T15:05:01.500Z,101455.91
2024-02-13T15:07:27.844Z,101455.56
2024-02-13T15:09:54.197Z,101446.19
2024-02-13T15:12:27.158Z,101460.31
2024-02-13T15:14:54.211Z,101456.34
2024-02-13T15:17:21.816Z,101457.00
2024-02-13T15:19:48.254Z,101458.78
2024-02-13T15:22:19.029Z,101452.91
2024-02-13T15:24:45.537Z,101451.38
2024-02-13T15:27:12.033Z,101449.06
2024-02-13T15:29:44.062Z,101453.91
2024-02-13T15:32:10.750Z,101455.78
2024-02-13T15:34:42.358Z,101448.16
2024-02-13T15:37:08.824Z,101458.56
2024-02-13T15:39:58.436Z,101461.44
2024-02-13T15:43:03.419Z,101459.00
2024-02-13T15:45:48.294Z,101459.09
2024-02-13T15:48:16.750Z,101466.72
2024-02-13T15:50:44.778Z,101467.25
2024-02-13T15:53:12.990Z,101471.78
2024-02-13T15:55:39.948Z,101475.13
2024-02-13T15:58:06.568Z,101472.56
2024-02-13T16:00:33.104Z,101475.88
2024-02-13T16:03:01.749Z,101472.44
2024-02-13T16:05:33.271Z,101485.69
2024-02-13T16:07:59.789Z,101486.31
2024-02-13T16:10:28.030Z,101490.53
2024-02-13T16:12:56.562Z,101487.91
2024-02-13T16:15:24.355Z,101495.41
2024-02-13T16:17:51.034Z,101486.00
2024-02-13T16:20:17.454Z,101486.69
2024-02-13T16:22:45.510Z,101496.94
2024-02-13T16:25:15.222Z,101492.84
2024-02-13T16:27:41.714Z,101490.44
2024-02-13T16:30:11.983Z,101498.16
2024-02-13T16:32:40.760Z,101499.25
2024-02-13T16:35:09.678Z,101502.00
2024-02-13T16:37:36.399Z,101508.84
2024-02-13T16:40:03.997Z,101507.31
2024-02-13T16:42:31.093Z,101505.56
2024-02-13T16:44:57.474Z,101504.78
2024-02-13T16:47:24.312Z,101507.31
2024-02-13T16:49:50.976Z,101503.97
2024-02-13T16:52:17.693Z,101502.00
2024-02-13T16:54:44.060Z,101508.63
2024-02-13T16:57:11.670Z,101510.38
2024-02-13T16:59:39.067Z,101510.38
2024-02-13T17:02:05.916Z,101513.91
2024-02-13T17:04:32.440Z,101508.84
2024-02-13T17:06:58.931Z,101515.69
2024-02-13T17:09:25.549Z,101516.34
2024-02-13T17:11:54.947Z,101524.06
2024-02-13T17:14:21.834Z,101526.72
2024-02-13T17:16:48.705Z,101519.00
2024-02-13T17:19:15.828Z,101525.72
2024-02-13T17:21:42.287Z,101519.78
2024-02-13T17:24:09.778Z,101520.53
2024-02-13T17:26:37.069Z,101525.59
2024-02-13T17:29:03.972Z,101530.78
2024-02-13T17:31:30.769Z,101530.66
2024-02-13T17:33:59.927Z,101528.13
2024-02-13T17:36:26.638Z,101529.13
2024-02-13T17:38:53.582Z,101525.38
2024-02-13T17:41:21.875Z,101531.34
2024-02-13T17:43:48.761Z,101518.56
2024-02-13T17:46:15.894Z,101527.69
2024-02-13T17:48:43.005Z,101535.31
2024-02-13T17:51:09.774Z,101524.94
2024-02-13T17:53:36.188Z,101530.66
2024-02-13T17:56:02.725Z,101525.25
2024-02-13T17:58:30.109Z,101537.03
2024-02-13T18:00:57.885Z,101525.13
2024-02-13T18:03:24.204Z,101526.88
2024-02-13T18:05:51.187Z,101529.53
2024-02-13T18:08:17.869Z,101530.31
2024-02-13T18:10:44.170Z,101526.25
2024-02-13T18:13:13.042Z,101524.47
2024-02-13T18:15:40.766Z,101529.53
2024-02-13T18:18:10.352Z,101531.31
2024-02-13T18:20:39.244Z,101522.81
2024-02-13T18:23:06.474Z,101521.94
2024-02-13T18:25:33.892Z,101519.66
2024-02-13T18:28:00.336Z,101518.06
2024-02-13T18:30:26.759Z,101519.88
2024-02-13T18:32:54.930Z,101521.63
2024-02-13T18:35:21.455Z,101514.78
2024-02-13T18:37:49.607Z,101521.63
2024-02-13T18:40:16.066Z,101521.63
2024-02-13T18:42:42.977Z,101518.97
2024-02-13T18:45:12.979Z,101519.66
2024-02-13T18:47:39.572Z,101519.66
2024-02-13T18:50:07.136Z,101523.94
2024-02-13T18:52:33.581Z,101515.53
2024-02-13T18:54:59.881Z,101513.00
2024-02-13T18:57:26.225Z,101526.69
2024-02-13T18:59:52.599Z,101524.16
2024-02-13T19:02:21.050Z,101521.63
2024-02-13T19:04:48.517Z,101526.06
2024-02-13T19:07:15.181Z,101518.56
2024-02-13T19:09:41.946Z,101518.78
2024-02-13T19:12:08.352Z,101521.41
2024-02-13T19:14:35.065Z,101521.41
2024-02-13T19:17:04.398Z,101523.06
2024-02-13T19:19:30.858Z,101519.66
2024-02-13T19:21:57.864Z,101518.78
2024-02-13T19:24:24.183Z,101517.88
2024-02-13T19:26:51.372Z,101517.03
2024-02-13T19:29:17.729Z,101516.13
2024-02-13T19:31:44.432Z,101517.03
2024-02-13T19:34:10.963Z,101516.13
2024-02-13T19:36:37.444Z,101519.31
2024-02-13T19:39:04.186Z,101524.16
2024-02-13T19:41:32.016Z,101520.63
2024-02-13T19:43:59.825Z,101523.59
2024-02-13T19:46:26.434Z,101514.31
2024-02-13T19:48:53.113Z,101517.63
2024-02-13T19:51:19.677Z,101522.50
2024-02-13T19:53:46.620Z,101517.53
2024-02-13T19:56:15.350Z,101512.34
2024-02-13T19:58:43.848Z,101504.75
2024-02-13T20:01:10.382Z,101508.81
2024-02-13T20:03:37.757Z,101512.00
2024-02-13T20:06:04.388Z,101501.50
2024-02-13T20:08:30.813Z,101519.03
2024-02-13T20:10:57.969Z,101520.34
2024-02-13T20:13:25.580Z,101534.53
2024-02-13T20:15:51.947Z,101526.59
2024-02-13T20:18:19.820Z,101524.72
2024-02-13T20:20:46.261Z,101532.31
2024-02-13T20:23:12.826Z,101524.84
2024-02-13T20:25:40.121Z,101526.50
2024-02-13T20:28:07.285Z,101525.38
2024-02-13T20:30:36.471Z,101531.63
2024-02-13T20:33:03.413Z,101534.47
2024-02-13T20:35:29.939Z,101528.28
2024-02-13T20:37:56.639Z,101532.72
2024-02-13T20:40:22.974Z,101532.16
2024-02-13T20:42:51.072Z,101540.13
2024-02-13T20:45:22.599Z,101541.22
2024-02-13T20:47:50.901Z,101540.25
2024-02-13T20:50:18.103Z,101542.13
2024-02-13T20:52:44.916Z,101535.41
2024-02-13T20:55:14.923Z,101533.38
2024-02-13T20:57:43.099Z,101531.63
2024-02-13T21:00:16.149Z,101543.06
2024-02-13T21:02:44.037Z,101531.81
2024-02-13T21:05:11.125Z,101531.47
2024-02-13T21:07:37.769Z,101540.59
2024-02-13T21:10:04.610Z,101537.06
2024-02-13T21:12:32.332Z,101538.06
2024-02-13T21:14:59.218Z,101535.31
2024-02-13T21:17:25.922Z,101529.00
2024-02-13T21:19:57.066Z,101534.59
2024-02-13T21:22:42.710Z,101535.38
2024-02-13T21:25:09.081Z,101527.78
2024-02-13T21:27:36.370Z,101529.28
2024-02-13T21:30:02.909Z,101531.31
2024-02-13T21:32:29.272Z,101528.13
2024-02-13T21:34:55.847Z,101533.28
2024-02-13T21:37:22.141Z,101524.94
2024-02-13T21:39:48.774Z,101518.19
2024-02-13T21:42:15.677Z,101518.31
2024-02-13T21:44:42.885Z,101525.19
2024-02-13T21:47:11.252Z,101526.19
2024-02-13T21:49:37.878Z,101525.41
2024-02-13T21:52:04.542Z,101521.22
2024-02-13T21:54:31.073Z,101526.41
2024-02-13T21:56:57.440Z,101523.88
2024-02-13T21:59:24.883Z,101529.91
2024-02-13T22:01:51.347Z,101529.16
2024-02-13T22:04:18.523Z,101529.16
2024-02-13T22:06:46.001Z,101534.47
2024-02-13T22:09:13.673Z,101532.94
2024-02-13T22:11:41.210Z,101529.63
2024-02-13T22:14:07.657Z,101531.53
2024-02-13T22:16:34.385Z,101529.84
2024-02-13T22:19:02.377Z,101520.59
2024-02-13T22:21:29.118Z,101523.25
2024-02-13T22:23:56.800Z,101529.22
2024-02-13T22:26:24.009Z,101525.03
2024-02-13T22:28:50.382Z,101528.69
2024-02-13T22:31:17.080Z,101533.09
2024-02-13T22:33:45.082Z,101528.81
2024-02-13T22:36:20.740Z,101530.34
2024-02-13T22:38:47.464Z,101526.91
2024-02-13T22:41:13.812Z,101528.81
2024-02-13T22:43:40.345Z,101525.50
2024-02-13T22:46:06.860Z,101523.72
2024-02-13T22:48:33.275Z,101525.25
2024-02-13T22:50:59.980Z,101528.13
2024-02-13T22:53:26.609Z,101524.59
2024-02-13T22:55:53.351Z,101530.34
2024-02-13T22:58:19.836Z,101529.31
2024-02-13T23:00:48.921Z,101526.00
2024-02-13T23:03:18.674Z,101522.72
2024-02-13T23:05:48.463Z,101526.78
2024-02-13T23:08:16.533Z,101522.50
2024-02-13T23:10:43.601Z,101518.19
2024-02-13T23:13:11.476Z,101519.97
2024-02-13T23:15:37.853Z,101524.94
2024-02-13T23:18:05.636Z,101526.78
2024-02-13T23:20:32.222Z,101530.34
2024-02-13T23:23:00.074Z,101530.56
2024-02-13T23:25:26.895Z,101527.91
2024-02-13T23:27:53.180Z,101522.94
2024-02-13T23:30:20.216Z,101521.94
2024-02-13T23:32:49.005Z,101520.19
2024-02-13T23:35:17.053Z,101522.84
2024-02-13T23:37:43.335Z,101524.47
2024-02-13T23:40:14.844Z,101521.94
2024-02-13T23:42:43.896Z,101522.84
2024-02-13T23:45:11.058Z,101525.25
2024-02-13T23:47:40.990Z,101520.19
2024-02-13T23:50:08.391Z,101515.13
2024-02-13T23:52:35.221Z,101517.44
2024-02-13T23:55:03.013Z,101503.88
2024-02-13T23:57:32.443Z,101495.94
2024-02-13T23:59:59.739Z,101507.59
